Terminal Aerodrome Forecast
Issued by NWS Austin/San Antonio, TX

Home | Current Version | Previous Version | Text Only | Print | Product List | Glossary On
Versions: 1 2 3 4 5 6 7 8 9 10 11 12 13 14 15 16 17 18
000
FTUS44 KEWX 101741
TAFDRT
TAF
KDRT 101741Z 1018/1118 14011KT P6SM OVC020
     FM102000 15013KT P6SM BKN025
     FM110200 12008KT P6SM OVC020
     FM110500 11006KT 5SM BR OVC007
      TEMPO 1109/1112 1SM BR
     FM111600 13007KT P6SM OVC012=

USA.gov is the U.S. government's official web portal to all federal, state and local government web resources and services.